sensor_id;sensor_type;location;lat;lon;timestamp;P1;durP1;ratioP1;P2;durP2;ratioP2
22557;SDS011;11445;53.816;8.902;2022-09-06T00:00:39;3.05;;;1.20;;
22557;SDS011;11445;53.816;8.902;2022-09-06T00:03:07;3.22;;;2.22;;
22557;SDS011;11445;53.816;8.902;2022-09-06T00:05:34;3.35;;;1.20;;
22557;SDS011;11445;53.816;8.902;2022-09-06T00:08:02;9.50;;;1.73;;
22557;SDS011;11445;53.816;8.902;2022-09-06T00:10:30;2.33;;;1.40;;
22557;SDS011;11445;53.816;8.902;2022-09-06T00:12:59;8.88;;;1.38;;
22557;SDS011;11445;53.816;8.902;2022-09-06T00:15:28;5.15;;;1.55;;
22557;SDS011;11445;53.816;8.902;2022-09-06T00:17:57;3.40;;;1.30;;
22557;SDS011;11445;53.816;8.902;2022-09-06T00:20:25;1.88;;;1.20;;
22557;SDS011;11445;53.816;8.902;2022-09-06T00:22:55;2.47;;;1.40;;
22557;SDS011;11445;53.816;8.902;2022-09-06T00:25:22;3.10;;;1.20;;
22557;SDS011;11445;53.816;8.902;2022-09-06T00:27:52;3.15;;;1.25;;
22557;SDS011;11445;53.816;8.902;2022-09-06T00:30:20;1.92;;;1.40;;
22557;SDS011;11445;53.816;8.902;2022-09-06T00:32:49;3.58;;;1.63;;
22557;SDS011;11445;53.816;8.902;2022-09-06T00:35:16;2.88;;;1.20;;
22557;SDS011;11445;53.816;8.902;2022-09-06T00:37:43;2.72;;;1.33;;
22557;SDS011;11445;53.816;8.902;2022-09-06T00:40:11;4.05;;;1.33;;
22557;SDS011;11445;53.816;8.902;2022-09-06T00:42:38;3.83;;;1.30;;
22557;SDS011;11445;53.816;8.902;2022-09-06T00:45:06;4.55;;;1.45;;
22557;SDS011;11445;53.816;8.902;2022-09-06T00:47:35;8.50;;;1.63;;
22557;SDS011;11445;53.816;8.902;2022-09-06T00:50:05;5.72;;;1.27;;
22557;SDS011;11445;53.816;8.902;2022-09-06T00:52:34;2.92;;;1.20;;
22557;SDS011;11445;53.816;8.902;2022-09-06T00:55:03;3.08;;;1.45;;
22557;SDS011;11445;53.816;8.902;2022-09-06T00:57:31;3.83;;;1.20;;
22557;SDS011;11445;53.816;8.902;2022-09-06T00:59:59;5.13;;;1.38;;
22557;SDS011;11445;53.816;8.902;2022-09-06T01:02:27;2.45;;;1.55;;
22557;SDS011;11445;53.816;8.902;2022-09-06T01:04:54;2.40;;;1.38;;
22557;SDS011;11445;53.816;8.902;2022-09-06T01:07:26;1.52;;;1.15;;
22557;SDS011;11445;53.816;8.902;2022-09-06T01:10:03;1.60;;;1.48;;
22557;SDS011;11445;53.816;8.902;2022-09-06T01:12:46;6.68;;;1.75;;
22557;SDS011;11445;53.816;8.902;2022-09-06T01:15:24;3.28;;;1.63;;
22557;SDS011;11445;53.816;8.902;2022-09-06T01:18:03;3.55;;;1.40;;
22557;SDS011;11445;53.816;8.902;2022-09-06T01:20:51;2.13;;;1.50;;
22557;SDS011;11445;53.816;8.902;2022-09-06T01:26:33;1.52;;;1.20;;
22557;SDS011;11445;53.816;8.902;2022-09-06T01:29:20;7.65;;;1.73;;
22557;SDS011;11445;53.816;8.902;2022-09-06T01:31:53;2.25;;;1.38;;
22557;SDS011;11445;53.816;8.902;2022-09-06T01:34:23;3.47;;;1.55;;
22557;SDS011;11445;53.816;8.902;2022-09-06T01:36:56;6.25;;;1.60;;
22557;SDS011;11445;53.816;8.902;2022-09-06T01:39:27;5.43;;;1.55;;
22557;SDS011;11445;53.816;8.902;2022-09-06T01:41:58;5.82;;;1.83;;
22557;SDS011;11445;53.816;8.902;2022-09-06T01:44:31;1.52;;;1.42;;
22557;SDS011;11445;53.816;8.902;2022-09-06T01:47:01;6.32;;;1.60;;
22557;SDS011;11445;53.816;8.902;2022-09-06T01:49:39;4.40;;;1.70;;
22557;SDS011;11445;53.816;8.902;2022-09-06T01:52:16;5.18;;;1.60;;
22557;SDS011;11445;53.816;8.902;2022-09-06T01:54:57;4.35;;;1.63;;
22557;SDS011;11445;53.816;8.902;2022-09-06T01:57:46;5.28;;;1.85;;
22557;SDS011;11445;53.816;8.902;2022-09-06T02:00:22;4.28;;;1.33;;
22557;SDS011;11445;53.816;8.902;2022-09-06T02:02:51;5.47;;;1.60;;
22557;SDS011;11445;53.816;8.902;2022-09-06T02:05:28;5.68;;;1.60;;
22557;SDS011;11445;53.816;8.902;2022-09-06T02:08:00;2.13;;;1.52;;
22557;SDS011;11445;53.816;8.902;2022-09-06T02:10:33;2.65;;;1.30;;
22557;SDS011;11445;53.816;8.902;2022-09-06T02:13:06;3.72;;;1.50;;
22557;SDS011;11445;53.816;8.902;2022-09-06T02:15:38;2.10;;;1.40;;
22557;SDS011;11445;53.816;8.902;2022-09-06T02:18:10;2.88;;;1.60;;
22557;SDS011;11445;53.816;8.902;2022-09-06T02:20:41;2.33;;;1.40;;
22557;SDS011;11445;53.816;8.902;2022-09-06T02:23:14;3.78;;;1.63;;
22557;SDS011;11445;53.816;8.902;2022-09-06T02:25:44;2.53;;;1.45;;
22557;SDS011;11445;53.816;8.902;2022-09-06T02:28:15;4.95;;;1.55;;
22557;SDS011;11445;53.816;8.902;2022-09-06T02:30:46;2.42;;;1.38;;
22557;SDS011;11445;53.816;8.902;2022-09-06T02:33:17;2.00;;;1.40;;
22557;SDS011;11445;53.816;8.902;2022-09-06T02:35:47;5.30;;;1.73;;
22557;SDS011;11445;53.816;8.902;2022-09-06T02:38:17;5.07;;;1.83;;
22557;SDS011;11445;53.816;8.902;2022-09-06T02:40:47;2.05;;;1.40;;
22557;SDS011;11445;53.816;8.902;2022-09-06T02:43:15;1.60;;;1.50;;
22557;SDS011;11445;53.816;8.902;2022-09-06T02:45:42;3.05;;;1.52;;
22557;SDS011;11445;53.816;8.902;2022-09-06T02:48:11;2.42;;;1.60;;
22557;SDS011;11445;53.816;8.902;2022-09-06T02:50:38;1.83;;;1.73;;
22557;SDS011;11445;53.816;8.902;2022-09-06T02:53:06;2.20;;;1.20;;
22557;SDS011;11445;53.816;8.902;2022-09-06T02:55:36;2.72;;;1.70;;
22557;SDS011;11445;53.816;8.902;2022-09-06T02:58:04;2.33;;;1.63;;
22557;SDS011;11445;53.816;8.902;2022-09-06T03:00:33;3.42;;;1.50;;
22557;SDS011;11445;53.816;8.902;2022-09-06T03:03:02;3.05;;;1.65;;
22557;SDS011;11445;53.816;8.902;2022-09-06T03:05:29;8.00;;;1.83;;
22557;SDS011;11445;53.816;8.902;2022-09-06T03:07:56;3.83;;;1.67;;
22557;SDS011;11445;53.816;8.902;2022-09-06T03:10:23;6.13;;;1.63;;
22557;SDS011;11445;53.816;8.902;2022-09-06T03:12:51;2.78;;;1.73;;
22557;SDS011;11445;53.816;8.902;2022-09-06T03:15:18;8.57;;;1.70;;
22557;SDS011;11445;53.816;8.902;2022-09-06T03:17:45;3.00;;;1.50;;
22557;SDS011;11445;53.816;8.902;2022-09-06T03:20:14;3.83;;;1.85;;
22557;SDS011;11445;53.816;8.902;2022-09-06T03:22:41;4.45;;;1.63;;
22557;SDS011;11445;53.816;8.902;2022-09-06T03:25:09;1.65;;;1.45;;
22557;SDS011;11445;53.816;8.902;2022-09-06T03:27:36;1.65;;;1.55;;
22557;SDS011;11445;53.816;8.902;2022-09-06T03:30:04;3.33;;;1.60;;
22557;SDS011;11445;53.816;8.902;2022-09-06T03:32:32;4.28;;;1.60;;
22557;SDS011;11445;53.816;8.902;2022-09-06T03:34:59;7.93;;;1.90;;
22557;SDS011;11445;53.816;8.902;2022-09-06T03:37:27;1.75;;;1.52;;
22557;SDS011;11445;53.816;8.902;2022-09-06T03:39:54;5.53;;;1.90;;
22557;SDS011;11445;53.816;8.902;2022-09-06T03:42:22;4.38;;;1.88;;
22557;SDS011;11445;53.816;8.902;2022-09-06T03:44:50;4.85;;;2.00;;
22557;SDS011;11445;53.816;8.902;2022-09-06T03:47:17;2.97;;;1.60;;
22557;SDS011;11445;53.816;8.902;2022-09-06T03:49:45;2.50;;;1.60;;
22557;SDS011;11445;53.816;8.902;2022-09-06T03:52:12;5.22;;;1.95;;
22557;SDS011;11445;53.816;8.902;2022-09-06T03:54:40;4.32;;;1.67;;
22557;SDS011;11445;53.816;8.902;2022-09-06T03:57:07;2.45;;;1.50;;
22557;SDS011;11445;53.816;8.902;2022-09-06T03:59:35;5.75;;;1.80;;
22557;SDS011;11445;53.816;8.902;2022-09-06T04:02:02;3.70;;;1.83;;
22557;SDS011;11445;53.816;8.902;2022-09-06T04:04:30;1.70;;;1.60;;
22557;SDS011;11445;53.816;8.902;2022-09-06T04:06:57;1.95;;;1.60;;
22557;SDS011;11445;53.816;8.902;2022-09-06T04:09:24;4.07;;;1.80;;
22557;SDS011;11445;53.816;8.902;2022-09-06T04:11:53;4.45;;;1.75;;
22557;SDS011;11445;53.816;8.902;2022-09-06T04:14:20;3.10;;;1.75;;
22557;SDS011;11445;53.816;8.902;2022-09-06T04:16:47;3.03;;;1.77;;
22557;SDS011;11445;53.816;8.902;2022-09-06T04:19:14;4.65;;;1.73;;
22557;SDS011;11445;53.816;8.902;2022-09-06T04:21:41;3.05;;;1.63;;
22557;SDS011;11445;53.816;8.902;2022-09-06T04:24:08;4.15;;;1.88;;
22557;SDS011;11445;53.816;8.902;2022-09-06T04:26:35;3.03;;;1.60;;
22557;SDS011;11445;53.816;8.902;2022-09-06T04:29:03;4.57;;;1.85;;
22557;SDS011;11445;53.816;8.902;2022-09-06T04:31:30;4.40;;;1.70;;
22557;SDS011;11445;53.816;8.902;2022-09-06T04:33:57;4.38;;;1.73;;
22557;SDS011;11445;53.816;8.902;2022-09-06T04:36:24;6.30;;;2.28;;
22557;SDS011;11445;53.816;8.902;2022-09-06T04:38:51;3.05;;;1.88;;
22557;SDS011;11445;53.816;8.902;2022-09-06T04:41:19;6.38;;;1.83;;
22557;SDS011;11445;53.816;8.902;2022-09-06T04:43:47;2.30;;;1.80;;
22557;SDS011;11445;53.816;8.902;2022-09-06T04:46:17;5.38;;;1.75;;
22557;SDS011;11445;53.816;8.902;2022-09-06T04:48:46;3.55;;;1.75;;
22557;SDS011;11445;53.816;8.902;2022-09-06T04:51:13;2.17;;;1.70;;
22557;SDS011;11445;53.816;8.902;2022-09-06T04:53:40;11.75;;;1.90;;
22557;SDS011;11445;53.816;8.902;2022-09-06T04:56:08;3.30;;;1.95;;
22557;SDS011;11445;53.816;8.902;2022-09-06T04:58:40;2.08;;;1.65;;
22557;SDS011;11445;53.816;8.902;2022-09-06T05:01:07;2.17;;;1.73;;
22557;SDS011;11445;53.816;8.902;2022-09-06T05:03:35;4.80;;;1.80;;
22557;SDS011;11445;53.816;8.902;2022-09-06T05:06:03;11.73;;;1.95;;
22557;SDS011;11445;53.816;8.902;2022-09-06T05:08:32;2.63;;;1.90;;
22557;SDS011;11445;53.816;8.902;2022-09-06T05:11:01;2.60;;;2.15;;
22557;SDS011;11445;53.816;8.902;2022-09-06T05:13:28;7.30;;;1.80;;
22557;SDS011;11445;53.816;8.902;2022-09-06T05:15:58;5.70;;;1.90;;
22557;SDS011;11445;53.816;8.902;2022-09-06T05:18:25;6.80;;;1.88;;
22557;SDS011;11445;53.816;8.902;2022-09-06T05:20:54;3.08;;;1.70;;
22557;SDS011;11445;53.816;8.902;2022-09-06T05:23:23;1.80;;;1.70;;
22557;SDS011;11445;53.816;8.902;2022-09-06T05:25:50;4.07;;;1.70;;
22557;SDS011;11445;53.816;8.902;2022-09-06T05:28:18;2.63;;;1.77;;
22557;SDS011;11445;53.816;8.902;2022-09-06T05:30:45;5.30;;;1.75;;
22557;SDS011;11445;53.816;8.902;2022-09-06T05:33:13;10.40;;;2.70;;
22557;SDS011;11445;53.816;8.902;2022-09-06T05:35:45;6.95;;;1.83;;
22557;SDS011;11445;53.816;8.902;2022-09-06T05:38:14;2.03;;;1.42;;
22557;SDS011;11445;53.816;8.902;2022-09-06T05:40:41;7.97;;;1.77;;
22557;SDS011;11445;53.816;8.902;2022-09-06T05:43:08;10.32;;;1.70;;
22557;SDS011;11445;53.816;8.902;2022-09-06T05:45:35;3.63;;;1.70;;
22557;SDS011;11445;53.816;8.902;2022-09-06T05:48:02;5.70;;;1.50;;
22557;SDS011;11445;53.816;8.902;2022-09-06T05:50:30;2.90;;;1.80;;
22557;SDS011;11445;53.816;8.902;2022-09-06T05:52:57;3.45;;;1.65;;
22557;SDS011;11445;53.816;8.902;2022-09-06T05:55:25;11.75;;;1.85;;
22557;SDS011;11445;53.816;8.902;2022-09-06T05:57:52;1.75;;;1.42;;
22557;SDS011;11445;53.816;8.902;2022-09-06T06:00:19;8.50;;;2.10;;
22557;SDS011;11445;53.816;8.902;2022-09-06T06:02:46;3.75;;;1.77;;
22557;SDS011;11445;53.816;8.902;2022-09-06T06:05:14;5.65;;;1.90;;
22557;SDS011;11445;53.816;8.902;2022-09-06T06:07:41;4.68;;;1.60;;
22557;SDS011;11445;53.816;8.902;2022-09-06T06:10:09;2.05;;;1.63;;
22557;SDS011;11445;53.816;8.902;2022-09-06T06:12:37;2.72;;;1.35;;
22557;SDS011;11445;53.816;8.902;2022-09-06T06:15:05;1.52;;;1.40;;
22557;SDS011;11445;53.816;8.902;2022-09-06T06:17:32;6.32;;;1.52;;
22557;SDS011;11445;53.816;8.902;2022-09-06T06:19:59;7.80;;;1.50;;
22557;SDS011;11445;53.816;8.902;2022-09-06T06:22:27;2.80;;;1.52;;
22557;SDS011;11445;53.816;8.902;2022-09-06T06:24:54;1.52;;;1.23;;
22557;SDS011;11445;53.816;8.902;2022-09-06T06:27:21;3.35;;;1.50;;
22557;SDS011;11445;53.816;8.902;2022-09-06T06:29:49;2.72;;;1.55;;
22557;SDS011;11445;53.816;8.902;2022-09-06T06:32:16;5.57;;;1.80;;
22557;SDS011;11445;53.816;8.902;2022-09-06T06:34:43;4.25;;;1.50;;
22557;SDS011;11445;53.816;8.902;2022-09-06T06:37:10;1.45;;;1.33;;
22557;SDS011;11445;53.816;8.902;2022-09-06T06:39:37;4.15;;;1.45;;
22557;SDS011;11445;53.816;8.902;2022-09-06T06:42:04;2.72;;;1.48;;
22557;SDS011;11445;53.816;8.902;2022-09-06T06:44:33;3.60;;;1.92;;
22557;SDS011;11445;53.816;8.902;2022-09-06T06:47:01;4.03;;;1.52;;
22557;SDS011;11445;53.816;8.902;2022-09-06T06:49:28;3.60;;;1.55;;
22557;SDS011;11445;53.816;8.902;2022-09-06T06:51:55;3.22;;;2.05;;
22557;SDS011;11445;53.816;8.902;2022-09-06T06:54:22;4.53;;;1.52;;
22557;SDS011;11445;53.816;8.902;2022-09-06T06:56:49;2.88;;;1.30;;
22557;SDS011;11445;53.816;8.902;2022-09-06T06:59:16;8.20;;;1.70;;
22557;SDS011;11445;53.816;8.902;2022-09-06T07:01:44;1.73;;;1.33;;
22557;SDS011;11445;53.816;8.902;2022-09-06T07:04:15;2.78;;;1.10;;
22557;SDS011;11445;53.816;8.902;2022-09-06T07:06:46;7.43;;;1.60;;
22557;SDS011;11445;53.816;8.902;2022-09-06T07:09:14;2.45;;;1.27;;
22557;SDS011;11445;53.816;8.902;2022-09-06T07:11:43;3.42;;;1.30;;
22557;SDS011;11445;53.816;8.902;2022-09-06T07:14:10;7.38;;;1.40;;
22557;SDS011;11445;53.816;8.902;2022-09-06T07:16:37;6.60;;;1.15;;
22557;SDS011;11445;53.816;8.902;2022-09-06T07:19:04;4.05;;;1.30;;
22557;SDS011;11445;53.816;8.902;2022-09-06T07:21:33;2.95;;;1.48;;
22557;SDS011;11445;53.816;8.902;2022-09-06T07:24:00;2.92;;;1.42;;
22557;SDS011;11445;53.816;8.902;2022-09-06T07:26:28;2.13;;;1.35;;
22557;SDS011;11445;53.816;8.902;2022-09-06T07:28:56;10.77;;;1.70;;
22557;SDS011;11445;53.816;8.902;2022-09-06T07:31:25;6.38;;;1.48;;
22557;SDS011;11445;53.816;8.902;2022-09-06T07:33:52;8.55;;;1.60;;
22557;SDS011;11445;53.816;8.902;2022-09-06T07:36:19;4.50;;;1.40;;
22557;SDS011;11445;53.816;8.902;2022-09-06T07:38:48;3.53;;;1.20;;
22557;SDS011;11445;53.816;8.902;2022-09-06T07:41:16;3.22;;;1.58;;
22557;SDS011;11445;53.816;8.902;2022-09-06T07:43:44;1.45;;;1.30;;
22557;SDS011;11445;53.816;8.902;2022-09-06T07:46:12;3.35;;;1.48;;
22557;SDS011;11445;53.816;8.902;2022-09-06T07:48:41;3.85;;;1.52;;
22557;SDS011;11445;53.816;8.902;2022-09-06T07:51:10;2.72;;;1.63;;
22557;SDS011;11445;53.816;8.902;2022-09-06T07:53:39;8.15;;;1.60;;
22557;SDS011;11445;53.816;8.902;2022-09-06T07:56:08;6.82;;;1.40;;
22557;SDS011;11445;53.816;8.902;2022-09-06T07:58:37;5.63;;;1.23;;
22557;SDS011;11445;53.816;8.902;2022-09-06T08:04:00;7.93;;;1.30;;
22557;SDS011;11445;53.816;8.902;2022-09-06T08:06:29;3.05;;;1.92;;
22557;SDS011;11445;53.816;8.902;2022-09-06T08:08:58;3.88;;;1.92;;
22557;SDS011;11445;53.816;8.902;2022-09-06T08:11:28;3.08;;;1.50;;
22557;SDS011;11445;53.816;8.902;2022-09-06T08:13:57;3.17;;;1.60;;
22557;SDS011;11445;53.816;8.902;2022-09-06T08:16:26;15.25;;;1.60;;
22557;SDS011;11445;53.816;8.902;2022-09-06T08:18:55;2.67;;;1.70;;
22557;SDS011;11445;53.816;8.902;2022-09-06T08:21:23;9.52;;;1.63;;
22557;SDS011;11445;53.816;8.902;2022-09-06T08:23:53;3.00;;;1.50;;
22557;SDS011;11445;53.816;8.902;2022-09-06T08:26:21;7.75;;;1.40;;
22557;SDS011;11445;53.816;8.902;2022-09-06T08:28:53;4.78;;;1.40;;
22557;SDS011;11445;53.816;8.902;2022-09-06T08:31:21;10.82;;;1.67;;
22557;SDS011;11445;53.816;8.902;2022-09-06T08:33:49;3.08;;;1.60;;
22557;SDS011;11445;53.816;8.902;2022-09-06T08:36:17;5.82;;;1.60;;
22557;SDS011;11445;53.816;8.902;2022-09-06T08:38:44;1.95;;;1.77;;
22557;SDS011;11445;53.816;8.902;2022-09-06T08:41:16;5.38;;;1.60;;
22557;SDS011;11445;53.816;8.902;2022-09-06T08:43:52;2.65;;;1.48;;
22557;SDS011;11445;53.816;8.902;2022-09-06T08:46:22;4.88;;;2.30;;
22557;SDS011;11445;53.816;8.902;2022-09-06T08:48:55;10.23;;;2.10;;
22557;SDS011;11445;53.816;8.902;2022-09-06T08:51:29;5.22;;;1.75;;
22557;SDS011;11445;53.816;8.902;2022-09-06T08:54:11;7.13;;;2.20;;
22557;SDS011;11445;53.816;8.902;2022-09-06T08:56:48;8.35;;;1.85;;
22557;SDS011;11445;53.816;8.902;2022-09-06T08:59:27;5.20;;;2.22;;
22557;SDS011;11445;53.816;8.902;2022-09-06T09:02:08;8.95;;;2.13;;
22557;SDS011;11445;53.816;8.902;2022-09-06T09:04:38;3.80;;;1.90;;
22557;SDS011;11445;53.816;8.902;2022-09-06T09:07:11;3.30;;;1.70;;
22557;SDS011;11445;53.816;8.902;2022-09-06T09:09:50;2.65;;;1.67;;
22557;SDS011;11445;53.816;8.902;2022-09-06T09:12:21;6.35;;;2.25;;
22557;SDS011;11445;53.816;8.902;2022-09-06T09:14:52;15.20;;;2.88;;
22557;SDS011;11445;53.816;8.902;2022-09-06T09:17:25;5.85;;;2.35;;
22557;SDS011;11445;53.816;8.902;2022-09-06T09:19:54;7.35;;;2.13;;
22557;SDS011;11445;53.816;8.902;2022-09-06T09:22:22;5.85;;;2.63;;
22557;SDS011;11445;53.816;8.902;2022-09-06T09:24:50;12.70;;;2.78;;
22557;SDS011;11445;53.816;8.902;2022-09-06T09:27:19;8.95;;;3.13;;
22557;SDS011;11445;53.816;8.902;2022-09-06T09:29:57;4.88;;;2.60;;
22557;SDS011;11445;53.816;8.902;2022-09-06T09:32:29;14.43;;;2.80;;
22557;SDS011;11445;53.816;8.902;2022-09-06T09:38:01;19.50;;;3.47;;
22557;SDS011;11445;53.816;8.902;2022-09-06T09:40:33;12.82;;;4.05;;
22557;SDS011;11445;53.816;8.902;2022-09-06T09:43:11;18.05;;;3.10;;
22557;SDS011;11445;53.816;8.902;2022-09-06T09:45:43;7.72;;;2.15;;
22557;SDS011;11445;53.816;8.902;2022-09-06T09:48:18;11.07;;;3.28;;
22557;SDS011;11445;53.816;8.902;2022-09-06T09:50:48;11.98;;;3.42;;
22557;SDS011;11445;53.816;8.902;2022-09-06T09:53:16;8.63;;;3.55;;
22557;SDS011;11445;53.816;8.902;2022-09-06T09:55:46;3.92;;;2.55;;
22557;SDS011;11445;53.816;8.902;2022-09-06T09:58:19;6.63;;;2.50;;
22557;SDS011;11445;53.816;8.902;2022-09-06T10:03:45;12.27;;;2.83;;
22557;SDS011;11445;53.816;8.902;2022-09-06T10:06:13;8.65;;;3.00;;
22557;SDS011;11445;53.816;8.902;2022-09-06T10:08:41;8.30;;;3.05;;
22557;SDS011;11445;53.816;8.902;2022-09-06T10:11:12;3.80;;;2.63;;
22557;SDS011;11445;53.816;8.902;2022-09-06T10:13:39;3.85;;;2.85;;
22557;SDS011;11445;53.816;8.902;2022-09-06T10:16:08;13.80;;;3.53;;
22557;SDS011;11445;53.816;8.902;2022-09-06T10:18:36;5.25;;;2.72;;
22557;SDS011;11445;53.816;8.902;2022-09-06T10:21:08;6.32;;;2.72;;
22557;SDS011;11445;53.816;8.902;2022-09-06T10:23:41;6.15;;;2.63;;
22557;SDS011;11445;53.816;8.902;2022-09-06T10:26:22;6.75;;;3.10;;
22557;SDS011;11445;53.816;8.902;2022-09-06T10:28:57;3.75;;;2.92;;
22557;SDS011;11445;53.816;8.902;2022-09-06T10:31:38;8.98;;;3.17;;
22557;SDS011;11445;53.816;8.902;2022-09-06T10:37:38;3.63;;;3.33;;
22557;SDS011;11445;53.816;8.902;2022-09-06T10:40:16;5.38;;;2.85;;
22557;SDS011;11445;53.816;8.902;2022-09-06T10:42:53;6.90;;;3.15;;
22557;SDS011;11445;53.816;8.902;2022-09-06T10:45:26;5.75;;;3.47;;
22557;SDS011;11445;53.816;8.902;2022-09-06T10:48:00;4.22;;;3.20;;
22557;SDS011;11445;53.816;8.902;2022-09-06T10:50:36;9.88;;;3.80;;
22557;SDS011;11445;53.816;8.902;2022-09-06T10:53:11;9.55;;;4.35;;
22557;SDS011;11445;53.816;8.902;2022-09-06T10:55:41;4.13;;;3.63;;
22557;SDS011;11445;53.816;8.902;2022-09-06T10:58:13;9.38;;;4.07;;
22557;SDS011;11445;53.816;8.902;2022-09-06T11:00:47;5.28;;;3.65;;
22557;SDS011;11445;53.816;8.902;2022-09-06T11:03:18;6.70;;;3.72;;
22557;SDS011;11445;53.816;8.902;2022-09-06T11:05:52;7.32;;;3.78;;
22557;SDS011;11445;53.816;8.902;2022-09-06T11:08:26;5.30;;;3.85;;
22557;SDS011;11445;53.816;8.902;2022-09-06T11:11:01;8.57;;;4.07;;
22557;SDS011;11445;53.816;8.902;2022-09-06T11:13:33;4.50;;;4.10;;
22557;SDS011;11445;53.816;8.902;2022-09-06T11:16:00;7.82;;;4.50;;
22557;SDS011;11445;53.816;8.902;2022-09-06T11:18:33;5.70;;;4.57;;
22557;SDS011;11445;53.816;8.902;2022-09-06T11:21:13;5.32;;;4.13;;
22557;SDS011;11445;53.816;8.902;2022-09-06T11:24:08;10.43;;;4.88;;
22557;SDS011;11445;53.816;8.902;2022-09-06T11:29:08;9.60;;;4.60;;
22557;SDS011;11445;53.816;8.902;2022-09-06T11:31:50;5.63;;;4.30;;
22557;SDS011;11445;53.816;8.902;2022-09-06T11:34:19;5.95;;;4.63;;
22557;SDS011;11445;53.816;8.902;2022-09-06T11:36:49;7.68;;;4.18;;
22557;SDS011;11445;53.816;8.902;2022-09-06T11:39:29;13.52;;;3.97;;
22557;SDS011;11445;53.816;8.902;2022-09-06T11:41:59;5.68;;;3.80;;
22557;SDS011;11445;53.816;8.902;2022-09-06T11:47:45;6.70;;;4.25;;
22557;SDS011;11445;53.816;8.902;2022-09-06T11:53:26;4.72;;;3.88;;
22557;SDS011;11445;53.816;8.902;2022-09-06T11:58:49;6.57;;;4.20;;
22557;SDS011;11445;53.816;8.902;2022-09-06T12:01:34;6.97;;;4.10;;
22557;SDS011;11445;53.816;8.902;2022-09-06T12:04:04;5.47;;;4.13;;
22557;SDS011;11445;53.816;8.902;2022-09-06T12:06:35;5.10;;;4.47;;
22557;SDS011;11445;53.816;8.902;2022-09-06T12:11:59;7.93;;;4.35;;
22557;SDS011;11445;53.816;8.902;2022-09-06T12:14:31;4.63;;;3.95;;
22557;SDS011;11445;53.816;8.902;2022-09-06T12:19:53;8.85;;;4.15;;
22557;SDS011;11445;53.816;8.902;2022-09-06T12:25:17;6.97;;;4.18;;
22557;SDS011;11445;53.816;8.902;2022-09-06T12:28:08;5.38;;;4.28;;
22557;SDS011;11445;53.816;8.902;2022-09-06T12:30:45;7.53;;;5.15;;
22557;SDS011;11445;53.816;8.902;2022-09-06T12:33:14;7.28;;;4.13;;
22557;SDS011;11445;53.816;8.902;2022-09-06T12:35:46;6.05;;;4.80;;
22557;SDS011;11445;53.816;8.902;2022-09-06T12:38:15;6.63;;;4.25;;
22557;SDS011;11445;53.816;8.902;2022-09-06T12:40:43;7.60;;;4.53;;
22557;SDS011;11445;53.816;8.902;2022-09-06T12:43:14;4.43;;;4.00;;
22557;SDS011;11445;53.816;8.902;2022-09-06T12:45:42;5.40;;;4.45;;
22557;SDS011;11445;53.816;8.902;2022-09-06T12:48:11;12.20;;;4.68;;
22557;SDS011;11445;53.816;8.902;2022-09-06T12:50:59;10.32;;;4.13;;
22557;SDS011;11445;53.816;8.902;2022-09-06T12:53:26;11.35;;;4.68;;
22557;SDS011;11445;53.816;8.902;2022-09-06T12:56:02;5.95;;;4.22;;
22557;SDS011;11445;53.816;8.902;2022-09-06T12:58:32;5.47;;;4.10;;
22557;SDS011;11445;53.816;8.902;2022-09-06T13:01:02;9.07;;;4.15;;
22557;SDS011;11445;53.816;8.902;2022-09-06T13:03:37;6.80;;;4.43;;
22557;SDS011;11445;53.816;8.902;2022-09-06T13:06:10;10.45;;;4.15;;
22557;SDS011;11445;53.816;8.902;2022-09-06T13:11:12;5.55;;;3.88;;
22557;SDS011;11445;53.816;8.902;2022-09-06T13:13:47;4.35;;;3.95;;
22557;SDS011;11445;53.816;8.902;2022-09-06T13:16:17;12.80;;;4.13;;
22557;SDS011;11445;53.816;8.902;2022-09-06T13:18:46;5.28;;;3.60;;
22557;SDS011;11445;53.816;8.902;2022-09-06T13:21:22;7.20;;;3.70;;
22557;SDS011;11445;53.816;8.902;2022-09-06T13:23:58;7.50;;;3.75;;
22557;SDS011;11445;53.816;8.902;2022-09-06T13:26:31;6.18;;;3.20;;
22557;SDS011;11445;53.816;8.902;2022-09-06T13:29:22;8.18;;;4.10;;
22557;SDS011;11445;53.816;8.902;2022-09-06T13:31:51;5.43;;;3.85;;
22557;SDS011;11445;53.816;8.902;2022-09-06T13:34:19;7.78;;;3.45;;
22557;SDS011;11445;53.816;8.902;2022-09-06T13:36:48;6.13;;;4.10;;
22557;SDS011;11445;53.816;8.902;2022-09-06T13:39:29;5.38;;;3.33;;
22557;SDS011;11445;53.816;8.902;2022-09-06T13:42:01;3.83;;;3.28;;
22557;SDS011;11445;53.816;8.902;2022-09-06T13:44:33;5.38;;;3.20;;
22557;SDS011;11445;53.816;8.902;2022-09-06T13:47:02;10.32;;;3.33;;
22557;SDS011;11445;53.816;8.902;2022-09-06T13:49:30;4.15;;;3.20;;
22557;SDS011;11445;53.816;8.902;2022-09-06T13:51:59;9.32;;;3.38;;
22557;SDS011;11445;53.816;8.902;2022-09-06T13:54:27;7.00;;;3.30;;
22557;SDS011;11445;53.816;8.902;2022-09-06T13:56:55;6.95;;;3.20;;
22557;SDS011;11445;53.816;8.902;2022-09-06T13:59:23;10.88;;;3.38;;
22557;SDS011;11445;53.816;8.902;2022-09-06T14:01:55;3.83;;;2.70;;
22557;SDS011;11445;53.816;8.902;2022-09-06T14:04:25;5.53;;;3.28;;
22557;SDS011;11445;53.816;8.902;2022-09-06T14:06:53;5.47;;;3.22;;
22557;SDS011;11445;53.816;8.902;2022-09-06T14:09:21;6.88;;;2.80;;
22557;SDS011;11445;53.816;8.902;2022-09-06T14:11:48;9.05;;;2.85;;
22557;SDS011;11445;53.816;8.902;2022-09-06T14:14:15;9.10;;;2.92;;
22557;SDS011;11445;53.816;8.902;2022-09-06T14:16:42;7.93;;;2.95;;
22557;SDS011;11445;53.816;8.902;2022-09-06T14:19:11;12.52;;;2.85;;
22557;SDS011;11445;53.816;8.902;2022-09-06T14:21:39;3.35;;;2.60;;
22557;SDS011;11445;53.816;8.902;2022-09-06T14:24:06;5.60;;;2.60;;
22557;SDS011;11445;53.816;8.902;2022-09-06T14:26:34;4.57;;;2.83;;
22557;SDS011;11445;53.816;8.902;2022-09-06T14:29:02;2.50;;;2.30;;
22557;SDS011;11445;53.816;8.902;2022-09-06T14:31:30;7.15;;;2.60;;
22557;SDS011;11445;53.816;8.902;2022-09-06T14:33:57;5.75;;;2.50;;
22557;SDS011;11445;53.816;8.902;2022-09-06T14:36:28;8.68;;;2.50;;
22557;SDS011;11445;53.816;8.902;2022-09-06T14:38:57;10.70;;;2.40;;
22557;SDS011;11445;53.816;8.902;2022-09-06T14:41:25;4.30;;;2.28;;
22557;SDS011;11445;53.816;8.902;2022-09-06T14:43:53;7.18;;;2.50;;
22557;SDS011;11445;53.816;8.902;2022-09-06T14:46:22;3.38;;;2.30;;
22557;SDS011;11445;53.816;8.902;2022-09-06T14:48:54;5.22;;;2.30;;
22557;SDS011;11445;53.816;8.902;2022-09-06T14:51:22;2.67;;;2.20;;
22557;SDS011;11445;53.816;8.902;2022-09-06T14:53:52;9.38;;;2.35;;
22557;SDS011;11445;53.816;8.902;2022-09-06T14:56:21;5.57;;;2.30;;
22557;SDS011;11445;53.816;8.902;2022-09-06T14:58:48;4.70;;;2.33;;
22557;SDS011;11445;53.816;8.902;2022-09-06T15:01:16;4.32;;;2.20;;
22557;SDS011;11445;53.816;8.902;2022-09-06T15:03:45;4.35;;;2.38;;
22557;SDS011;11445;53.816;8.902;2022-09-06T15:06:15;7.10;;;2.25;;
22557;SDS011;11445;53.816;8.902;2022-09-06T15:08:44;7.93;;;2.03;;
22557;SDS011;11445;53.816;8.902;2022-09-06T15:11:14;8.73;;;2.10;;
22557;SDS011;11445;53.816;8.902;2022-09-06T15:13:53;6.18;;;2.40;;
22557;SDS011;11445;53.816;8.902;2022-09-06T15:16:21;11.25;;;2.33;;
22557;SDS011;11445;53.816;8.902;2022-09-06T15:18:48;6.40;;;2.13;;
22557;SDS011;11445;53.816;8.902;2022-09-06T15:21:15;10.20;;;2.17;;
22557;SDS011;11445;53.816;8.902;2022-09-06T15:23:43;5.97;;;1.88;;
22557;SDS011;11445;53.816;8.902;2022-09-06T15:26:10;6.10;;;2.10;;
22557;SDS011;11445;53.816;8.902;2022-09-06T15:28:41;9.60;;;2.22;;
22557;SDS011;11445;53.816;8.902;2022-09-06T15:31:09;3.67;;;1.95;;
22557;SDS011;11445;53.816;8.902;2022-09-06T15:33:38;4.63;;;1.80;;
22557;SDS011;11445;53.816;8.902;2022-09-06T15:36:06;4.90;;;2.00;;
22557;SDS011;11445;53.816;8.902;2022-09-06T15:38:34;5.97;;;1.90;;
22557;SDS011;11445;53.816;8.902;2022-09-06T15:41:04;2.92;;;2.20;;